createdAt,value
2022-08-25T00:00:41.892Z,950.68
2022-08-25T00:03:08.317Z,950.74
2022-08-25T00:05:34.743Z,950.68
2022-08-25T00:08:01.128Z,950.66
2022-08-25T00:10:27.414Z,950.62
2022-08-25T00:12:53.818Z,950.62
2022-08-25T00:15:20.204Z,950.59
2022-08-25T00:17:46.570Z,950.61
2022-08-25T00:20:12.942Z,950.53
2022-08-25T00:22:39.395Z,950.55
2022-08-25T00:25:05.756Z,950.56
2022-08-25T00:27:32.125Z,950.58
2022-08-25T00:29:58.492Z,950.62
2022-08-25T00:32:24.902Z,950.50
2022-08-25T00:34:51.265Z,950.54
2022-08-25T00:37:17.641Z,950.54
2022-08-25T00:39:44.211Z,950.51
2022-08-25T00:42:16.161Z,950.52
2022-08-25T00:44:36.917Z,950.49
2022-08-25T00:47:03.315Z,950.52
2022-08-25T00:49:29.685Z,950.58
2022-08-25T00:51:56.178Z,950.60
2022-08-25T00:54:22.535Z,950.63
2022-08-25T00:56:48.941Z,950.52
2022-08-25T00:59:15.355Z,950.53
2022-08-25T01:01:41.776Z,950.52
2022-08-25T01:04:08.237Z,950.47
2022-08-25T01:06:34.648Z,950.40
2022-08-25T01:09:01.106Z,950.45
2022-08-25T01:11:27.466Z,950.40
2022-08-25T01:13:53.964Z,950.45
2022-08-25T01:16:20.373Z,950.40
2022-08-25T01:18:46.742Z,950.23
2022-08-25T01:21:13.167Z,950.31
2022-08-25T01:23:39.532Z,950.38
2022-08-25T01:26:05.910Z,950.31
2022-08-25T01:28:32.363Z,950.29
2022-08-25T01:30:58.870Z,950.32
2022-08-25T01:33:25.175Z,950.42
2022-08-25T01:35:51.658Z,950.44
2022-08-25T01:38:18.059Z,950.34
2022-08-25T01:40:44.428Z,950.31
2022-08-25T01:43:10.857Z,950.23
2022-08-25T01:45:37.235Z,950.31
2022-08-25T01:48:03.748Z,950.38
2022-08-25T01:50:30.054Z,950.44
2022-08-25T01:52:56.423Z,950.35
2022-08-25T01:55:22.799Z,950.43
2022-08-25T01:57:49.169Z,950.40
2022-08-25T02:00:15.542Z,950.34
2022-08-25T02:02:42.601Z,950.34
2022-08-25T02:05:08.278Z,950.30
2022-08-25T02:07:34.644Z,950.29
2022-08-25T02:10:03.436Z,950.26
2022-08-25T02:12:27.475Z,950.30
2022-08-25T02:14:53.845Z,950.33
2022-08-25T02:17:20.234Z,950.23
2022-08-25T02:19:46.603Z,950.19
2022-08-25T02:22:13.071Z,950.21
2022-08-25T02:24:39.502Z,950.19
2022-08-25T02:27:05.888Z,950.20
2022-08-25T02:29:32.279Z,950.22
2022-08-25T02:31:58.643Z,950.19
2022-08-25T02:34:25.136Z,950.18
2022-08-25T02:36:51.533Z,950.18
2022-08-25T02:39:17.901Z,950.23
2022-08-25T02:41:44.266Z,950.19
2022-08-25T02:44:10.659Z,950.13
2022-08-25T02:46:37.045Z,950.23
2022-08-25T02:49:03.532Z,950.23
2022-08-25T02:51:29.966Z,950.26
2022-08-25T02:53:56.326Z,950.23
2022-08-25T02:56:22.688Z,950.28
2022-08-25T02:58:49.284Z,950.30
2022-08-25T03:01:17.585Z,950.36
2022-08-25T03:03:42.244Z,950.30
2022-08-25T03:06:08.486Z,950.41
2022-08-25T03:08:34.898Z,950.37
2022-08-25T03:11:01.315Z,950.46
2022-08-25T03:13:27.728Z,950.35
2022-08-25T03:15:54.119Z,950.32
2022-08-25T03:18:20.627Z,950.25
2022-08-25T03:20:47.026Z,950.29
2022-08-25T03:23:13.433Z,950.39
2022-08-25T03:25:39.796Z,950.32
2022-08-25T03:28:06.379Z,950.23
2022-08-25T03:30:32.654Z,950.36
2022-08-25T03:32:59.009Z,950.37
2022-08-25T03:35:25.402Z,950.34
2022-08-25T03:37:51.795Z,950.33
2022-08-25T03:40:18.244Z,950.41
2022-08-25T03:42:45.260Z,950.42
2022-08-25T03:45:10.990Z,950.36
2022-08-25T03:47:37.374Z,950.31
2022-08-25T03:50:03.777Z,950.21
2022-08-25T03:52:30.281Z,950.25
2022-08-25T03:54:56.709Z,950.27
2022-08-25T03:57:23.074Z,950.21
2022-08-25T03:59:49.494Z,950.22
2022-08-25T04:02:15.919Z,950.17
2022-08-25T04:04:42.238Z,950.18
2022-08-25T04:07:08.668Z,950.17
2022-08-25T04:09:36.915Z,950.16
2022-08-25T04:12:01.463Z,950.16
2022-08-25T04:14:27.872Z,950.26
2022-08-25T04:16:54.298Z,950.31
2022-08-25T04:19:20.638Z,950.32
2022-08-25T04:21:47.065Z,950.29
2022-08-25T04:24:13.424Z,950.23
2022-08-25T04:26:39.930Z,950.14
2022-08-25T04:29:06.307Z,950.10
2022-08-25T04:31:32.842Z,950.01
2022-08-25T04:33:59.181Z,950.12
2022-08-25T04:36:25.659Z,950.18
2022-08-25T04:38:52.050Z,950.20
2022-08-25T04:41:18.429Z,950.23
2022-08-25T04:43:44.852Z,950.29
2022-08-25T04:46:11.380Z,950.34
2022-08-25T04:48:37.671Z,950.28
2022-08-25T04:51:04.049Z,950.38
2022-08-25T04:53:30.409Z,950.44
2022-08-25T04:55:59.580Z,950.41
2022-08-25T04:58:23.216Z,950.37
2022-08-25T05:00:49.650Z,950.38
2022-08-25T05:03:16.014Z,950.40
2022-08-25T05:05:42.435Z,950.39
2022-08-25T05:08:08.881Z,950.40
2022-08-25T05:10:35.280Z,950.40
2022-08-25T05:13:01.743Z,950.31
2022-08-25T05:15:28.129Z,950.28
2022-08-25T05:17:59.844Z,950.30
2022-08-25T05:20:20.918Z,950.25
2022-08-25T05:22:47.293Z,950.28
2022-08-25T05:25:13.689Z,950.28
2022-08-25T05:27:40.099Z,950.22
2022-08-25T05:30:06.475Z,950.10
2022-08-25T05:32:32.855Z,950.18
2022-08-25T05:34:59.253Z,950.29
2022-08-25T05:37:25.639Z,950.27
2022-08-25T05:39:52.044Z,950.23
2022-08-25T05:42:18.438Z,950.26
2022-08-25T05:44:44.866Z,950.20
2022-08-25T05:47:11.260Z,950.23
2022-08-25T05:49:37.730Z,950.20
2022-08-25T05:52:04.120Z,950.24
2022-08-25T05:54:30.596Z,950.20
2022-08-25T05:56:57.010Z,950.25
2022-08-25T05:59:23.466Z,950.25
2022-08-25T06:01:49.862Z,950.25
2022-08-25T06:04:16.233Z,950.22
2022-08-25T06:06:42.631Z,950.17
2022-08-25T06:09:08.999Z,950.14
2022-08-25T06:11:35.373Z,950.23
2022-08-25T06:14:01.861Z,950.30
2022-08-25T06:16:28.274Z,950.28
2022-08-25T06:18:54.639Z,950.24
2022-08-25T06:21:21.041Z,950.24
2022-08-25T06:23:47.414Z,950.15
2022-08-25T06:26:19.524Z,950.13
2022-08-25T06:28:40.248Z,950.10
2022-08-25T06:31:06.679Z,950.06
2022-08-25T06:33:33.189Z,950.12
2022-08-25T06:35:59.579Z,950.18
2022-08-25T06:38:25.961Z,950.19
2022-08-25T06:40:52.327Z,950.16
2022-08-25T06:43:18.731Z,950.27
2022-08-25T06:45:45.117Z,950.24
2022-08-25T06:48:11.682Z,950.26
2022-08-25T06:50:38.001Z,950.27
2022-08-25T06:53:04.373Z,950.23
2022-08-25T06:55:30.751Z,950.26
2022-08-25T06:57:57.143Z,950.23
2022-08-25T07:00:23.507Z,950.22
2022-08-25T07:02:50.007Z,950.26
2022-08-25T07:05:26.941Z,950.20
2022-08-25T07:07:44.000Z,950.23
2022-08-25T07:10:09.350Z,950.25
2022-08-25T07:12:36.301Z,950.20
2022-08-25T07:15:20.381Z,950.23
2022-08-25T07:17:29.028Z,950.26
2022-08-25T07:19:57.568Z,950.19
2022-08-25T07:22:21.801Z,950.20
2022-08-25T07:24:48.183Z,950.19
2022-08-25T07:27:14.549Z,950.20
2022-08-25T07:29:42.266Z,950.13
2022-08-25T07:32:07.314Z,950.17
2022-08-25T07:34:33.716Z,950.18
2022-08-25T07:37:00.115Z,950.20
2022-08-25T07:39:26.526Z,950.16
2022-08-25T07:41:52.920Z,950.18
2022-08-25T07:44:19.328Z,950.14
2022-08-25T07:46:45.837Z,950.19
2022-08-25T07:49:16.809Z,950.22
2022-08-25T07:51:38.536Z,950.26
2022-08-25T07:54:04.912Z,950.27
2022-08-25T07:56:31.327Z,950.23
2022-08-25T07:58:57.756Z,950.24
2022-08-25T08:01:24.252Z,950.27
2022-08-25T08:03:51.649Z,950.17
2022-08-25T08:06:17.013Z,950.18
2022-08-25T08:08:43.407Z,950.20
2022-08-25T08:11:09.825Z,950.08
2022-08-25T08:13:41.134Z,950.14
2022-08-25T08:16:02.671Z,950.05
2022-08-25T08:18:28.989Z,950.11
2022-08-25T08:20:55.378Z,950.00
2022-08-25T08:23:21.783Z,950.02
2022-08-25T08:25:48.151Z,950.02
2022-08-25T08:28:14.652Z,950.04
2022-08-25T08:30:53.328Z,949.97
2022-08-25T08:33:12.335Z,949.95
2022-08-25T08:35:34.051Z,950.00
2022-08-25T08:38:00.445Z,950.01
2022-08-25T08:40:26.894Z,949.92
2022-08-25T08:42:53.207Z,949.90
2022-08-25T08:45:19.573Z,949.94
2022-08-25T08:47:45.950Z,949.92
2022-08-25T08:50:12.343Z,949.91
2022-08-25T08:52:38.736Z,949.89
2022-08-25T08:55:06.496Z,949.87
2022-08-25T08:57:31.511Z,949.84
2022-08-25T08:59:58.278Z,949.83
2022-08-25T09:02:39.113Z,949.91
2022-08-25T09:04:50.671Z,949.83
2022-08-25T09:07:17.047Z,949.80
2022-08-25T09:09:43.498Z,949.79
2022-08-25T09:12:10.035Z,949.79
2022-08-25T09:14:36.444Z,949.81
2022-08-25T09:17:02.940Z,949.80
2022-08-25T09:19:29.193Z,949.80
2022-08-25T09:21:55.594Z,949.77
2022-08-25T09:24:21.979Z,949.83
2022-08-25T09:26:48.433Z,949.82
2022-08-25T09:29:16.836Z,949.89
2022-08-25T09:31:41.282Z,949.74
2022-08-25T09:34:07.614Z,949.73
2022-08-25T09:36:37.484Z,949.71
2022-08-25T09:39:00.495Z,949.77
2022-08-25T09:41:26.933Z,949.68
2022-08-25T09:43:53.354Z,949.62
2022-08-25T09:46:20.887Z,949.61
2022-08-25T09:48:46.451Z,949.58
2022-08-25T09:51:12.864Z,949.50
2022-08-25T09:53:39.272Z,949.62
2022-08-25T09:56:05.726Z,949.53
2022-08-25T09:58:32.189Z,949.64
2022-08-25T10:00:58.528Z,949.71
2022-08-25T10:03:25.287Z,949.75
2022-08-25T10:05:56.479Z,949.74
2022-08-25T10:08:18.325Z,949.73
2022-08-25T10:10:44.194Z,949.73
2022-08-25T10:13:10.582Z,949.74
2022-08-25T10:15:37.055Z,949.77
2022-08-25T10:18:03.350Z,949.73
2022-08-25T10:20:33.024Z,949.65
2022-08-25T10:22:56.172Z,949.60
2022-08-25T10:25:22.538Z,949.67
2022-08-25T10:27:48.931Z,949.68
2022-08-25T10:30:15.354Z,949.64
2022-08-25T10:32:41.736Z,949.56
2022-08-25T10:35:08.107Z,949.51
2022-08-25T10:37:34.485Z,949.47
2022-08-25T10:40:00.893Z,949.49
2022-08-25T10:42:27.246Z,949.48
2022-08-25T10:44:53.674Z,949.40
2022-08-25T10:47:20.103Z,949.42
2022-08-25T10:49:46.539Z,949.42
2022-08-25T10:52:12.971Z,949.40
2022-08-25T10:54:39.402Z,949.43
2022-08-25T10:57:08.112Z,949.35
2022-08-25T10:59:32.268Z,949.32
2022-08-25T11:01:58.701Z,949.29
2022-08-25T11:04:25.368Z,949.28
2022-08-25T11:06:54.591Z,949.30
2022-08-25T11:09:17.900Z,949.26
2022-08-25T11:11:44.287Z,949.22
2022-08-25T11:14:11.265Z,949.21
2022-08-25T11:16:37.309Z,949.17
2022-08-25T11:19:05.484Z,949.07
2022-08-25T11:21:29.836Z,949.07
2022-08-25T11:23:56.293Z,949.06
2022-08-25T11:26:25.099Z,949.10
2022-08-25T11:28:49.119Z,949.00
2022-08-25T11:31:15.663Z,948.98
2022-08-25T11:33:41.963Z,948.95
2022-08-25T11:36:08.329Z,948.90
2022-08-25T11:38:34.791Z,948.92
2022-08-25T11:41:01.190Z,948.89
2022-08-25T11:43:27.654Z,948.83
2022-08-25T11:45:54.432Z,948.86
2022-08-25T11:48:20.520Z,948.88
2022-08-25T11:50:46.947Z,948.84
2022-08-25T11:53:13.392Z,948.87
2022-08-25T11:55:39.786Z,948.76
2022-08-25T11:58:06.305Z,948.81
2022-08-25T12:00:32.531Z,948.73
2022-08-25T12:03:01.605Z,948.67
2022-08-25T12:05:25.431Z,948.74
2022-08-25T12:07:51.780Z,948.70
2022-08-25T12:10:18.165Z,948.69
2022-08-25T12:12:44.533Z,948.62
2022-08-25T12:15:10.902Z,948.56
2022-08-25T12:17:37.309Z,948.65
2022-08-25T12:20:03.672Z,948.64
2022-08-25T12:22:30.342Z,948.72
2022-08-25T12:24:56.727Z,948.75
2022-08-25T12:27:23.100Z,948.66
2022-08-25T12:29:49.575Z,948.74
2022-08-25T12:32:15.970Z,948.70
2022-08-25T12:34:42.424Z,948.67
2022-08-25T12:37:08.842Z,948.73
2022-08-25T12:39:35.214Z,948.62
2022-08-25T12:44:28.036Z,948.72
2022-08-25T12:46:54.421Z,948.70
2022-08-25T12:49:21.023Z,948.74
2022-08-25T12:51:48.676Z,948.59
2022-08-25T12:54:15.841Z,948.51
2022-08-25T12:56:40.068Z,948.57
2022-08-25T12:59:06.431Z,948.59
2022-08-25T13:01:35.819Z,948.69
2022-08-25T13:03:59.220Z,948.73
2022-08-25T13:06:25.586Z,948.69
2022-08-25T13:08:51.972Z,948.76
2022-08-25T13:11:20.230Z,948.68
2022-08-25T13:13:44.802Z,948.72
2022-08-25T13:16:11.187Z,948.73
2022-08-25T13:18:37.532Z,948.64
2022-08-25T13:21:03.912Z,948.61
2022-08-25T13:23:30.297Z,948.58
2022-08-25T13:25:58.376Z,948.56
2022-08-25T13:28:23.038Z,948.62
2022-08-25T13:30:49.450Z,948.58
2022-08-25T13:33:15.815Z,948.61
2022-08-25T13:35:42.197Z,948.57
2022-08-25T13:38:08.598Z,948.54
2022-08-25T13:40:34.989Z,948.58
2022-08-25T13:43:02.802Z,948.55
2022-08-25T13:45:27.881Z,948.55
2022-08-25T13:47:55.920Z,948.64
2022-08-25T13:50:20.641Z,948.57
2022-08-25T13:52:46.999Z,948.65
2022-08-25T13:55:13.365Z,948.59
2022-08-25T13:57:39.734Z,948.65
2022-08-25T14:00:06.269Z,948.67
2022-08-25T14:02:32.727Z,948.64
2022-08-25T14:04:59.029Z,948.64
2022-08-25T14:07:25.409Z,948.63
2022-08-25T14:09:52.172Z,948.57
2022-08-25T14:12:18.222Z,948.60
2022-08-25T14:14:44.660Z,948.58
2022-08-25T14:17:28.656Z,948.60
2022-08-25T14:19:37.450Z,948.66
2022-08-25T14:22:03.834Z,948.58
2022-08-25T14:24:30.206Z,948.60
2022-08-25T14:26:56.599Z,948.61
2022-08-25T14:29:22.981Z,948.60
2022-08-25T14:31:49.450Z,948.57
2022-08-25T14:34:15.742Z,948.60
2022-08-25T14:36:42.127Z,948.59
2022-08-25T14:39:08.687Z,948.59
2022-08-25T14:41:34.968Z,948.60
2022-08-25T14:44:01.447Z,948.56
2022-08-25T14:46:27.838Z,948.56
2022-08-25T14:48:54.231Z,948.53
2022-08-25T14:51:20.635Z,948.54
2022-08-25T14:53:47.036Z,948.59
2022-08-25T14:56:14.255Z,948.49
2022-08-25T14:58:48.575Z,948.52
2022-08-25T15:01:07.010Z,948.58
2022-08-25T15:03:32.710Z,948.57
2022-08-25T15:05:59.080Z,948.57
2022-08-25T15:08:27.219Z,948.65
2022-08-25T15:10:51.850Z,948.59
2022-08-25T15:13:18.340Z,948.64
2022-08-25T15:15:52.931Z,948.63
2022-08-25T15:18:11.080Z,948.65
2022-08-25T15:20:37.445Z,948.63
2022-08-25T15:23:03.828Z,948.56
2022-08-25T15:25:30.318Z,948.59
2022-08-25T15:27:56.716Z,948.60
2022-08-25T15:30:23.078Z,948.53
2022-08-25T15:32:49.490Z,948.53
2022-08-25T15:35:15.857Z,948.55
2022-08-25T15:37:42.272Z,948.60
2022-08-25T15:40:08.679Z,948.58
2022-08-25T15:42:35.123Z,948.65
2022-08-25T15:45:01.659Z,948.60
2022-08-25T15:47:28.049Z,948.61
2022-08-25T15:49:54.413Z,948.64
2022-08-25T15:52:20.973Z,948.61
2022-08-25T15:54:47.372Z,948.58
2022-08-25T15:57:24.217Z,948.59
2022-08-25T15:59:41.648Z,948.58
2022-08-25T16:02:06.785Z,948.57
2022-08-25T16:04:33.105Z,948.52
2022-08-25T16:06:59.890Z,948.56
2022-08-25T16:09:26.247Z,948.50
2022-08-25T16:11:57.689Z,948.45
2022-08-25T16:14:19.109Z,948.46
2022-08-25T16:16:45.510Z,948.47
2022-08-25T16:19:12.052Z,948.53
2022-08-25T16:21:45.419Z,948.49
2022-08-25T16:24:07.409Z,948.51
2022-08-25T16:26:31.330Z,948.50
2022-08-25T16:28:57.788Z,948.54
2022-08-25T16:31:24.274Z,948.52
2022-08-25T16:33:53.498Z,948.57
2022-08-25T16:36:17.092Z,948.52
2022-08-25T16:38:43.474Z,948.57
2022-08-25T16:41:09.893Z,948.60
2022-08-25T16:43:36.296Z,948.56
2022-08-25T16:46:02.657Z,948.52
2022-08-25T16:48:29.060Z,948.55
2022-08-25T16:50:55.429Z,948.58
2022-08-25T16:53:23.851Z,948.66
2022-08-25T16:55:48.223Z,948.69
2022-08-25T16:58:14.585Z,948.71
2022-08-25T17:00:40.991Z,948.68
2022-08-25T17:03:07.315Z,948.69
2022-08-25T17:05:33.705Z,948.71
2022-08-25T17:08:00.155Z,948.74
2022-08-25T17:10:26.456Z,948.73
2022-08-25T17:12:52.841Z,948.72
2022-08-25T17:15:19.250Z,948.81
2022-08-25T17:17:45.631Z,948.77
2022-08-25T17:20:12.011Z,948.76
2022-08-25T17:22:38.412Z,948.73
2022-08-25T17:25:06.819Z,948.76
2022-08-25T17:27:31.179Z,948.76
2022-08-25T17:29:57.565Z,948.80
2022-08-25T17:32:30.226Z,948.79
2022-08-25T17:34:50.340Z,948.75
2022-08-25T17:37:16.735Z,948.83
2022-08-25T17:39:43.123Z,948.82
2022-08-25T17:42:09.479Z,948.85
2022-08-25T17:44:35.866Z,948.78
2022-08-25T17:47:02.294Z,948.75
2022-08-25T17:49:28.927Z,948.75
2022-08-25T17:51:55.370Z,948.79
2022-08-25T17:54:21.797Z,948.82
2022-08-25T17:56:48.188Z,948.82
2022-08-25T17:59:14.595Z,948.83
2022-08-25T18:01:41.164Z,948.81
2022-08-25T18:04:07.319Z,948.83
2022-08-25T18:06:33.953Z,948.89
2022-08-25T18:09:00.382Z,948.86
2022-08-25T18:11:26.704Z,948.91
2022-08-25T18:13:53.094Z,948.93
2022-08-25T18:16:19.591Z,948.86
2022-08-25T18:18:45.982Z,948.94
2022-08-25T18:21:12.375Z,948.97
2022-08-25T18:23:38.740Z,948.90
2022-08-25T18:26:05.164Z,948.91
2022-08-25T18:28:31.551Z,948.89
2022-08-25T18:30:58.020Z,948.92
2022-08-25T18:33:24.343Z,949.05
2022-08-25T18:35:50.848Z,948.94
2022-08-25T18:38:17.280Z,948.98
2022-08-25T18:40:43.647Z,949.01
2022-08-25T18:43:10.048Z,949.02
2022-08-25T18:45:36.447Z,948.98
2022-08-25T18:48:02.886Z,948.95
2022-08-25T18:50:29.181Z,948.95
2022-08-25T18:52:55.560Z,948.95
2022-08-25T18:55:21.931Z,948.92
2022-08-25T18:57:48.307Z,948.98
2022-08-25T19:00:14.723Z,949.01
2022-08-25T19:02:41.196Z,948.97
2022-08-25T19:05:10.637Z,948.96
2022-08-25T19:07:33.860Z,948.89
2022-08-25T19:10:00.224Z,948.91
2022-08-25T19:12:26.625Z,948.96
2022-08-25T19:14:53.053Z,948.95
2022-08-25T19:17:19.437Z,948.92
2022-08-25T19:19:45.839Z,948.93
2022-08-25T19:22:26.514Z,948.94
2022-08-25T19:24:38.592Z,948.97
2022-08-25T19:27:04.974Z,948.96
2022-08-25T19:29:31.341Z,948.93
2022-08-25T19:31:57.722Z,948.90
2022-08-25T19:34:24.129Z,948.94
2022-08-25T19:36:50.514Z,948.93
2022-08-25T19:39:17.181Z,948.89
2022-08-25T19:41:43.575Z,948.84
2022-08-25T19:44:09.945Z,948.77
2022-08-25T19:46:36.452Z,948.81
2022-08-25T19:49:07.220Z,948.80
2022-08-25T19:51:29.513Z,948.83
2022-08-25T19:53:58.030Z,948.81
2022-08-25T19:56:22.283Z,948.85
2022-08-25T19:58:48.754Z,948.90
2022-08-25T20:01:18.353Z,948.94
2022-08-25T20:03:41.534Z,948.93
2022-08-25T20:06:08.147Z,948.97
2022-08-25T20:08:34.594Z,948.93
2022-08-25T20:11:00.962Z,948.98
2022-08-25T20:13:27.360Z,948.98
2022-08-25T20:15:57.703Z,948.99
2022-08-25T20:18:20.925Z,948.99
2022-08-25T20:20:47.255Z,948.94
2022-08-25T20:23:13.696Z,948.99
2022-08-25T20:25:40.128Z,949.01
2022-08-25T20:28:06.514Z,949.02
2022-08-25T20:30:32.958Z,948.97
2022-08-25T20:33:00.599Z,948.99
2022-08-25T20:35:27.168Z,948.99
2022-08-25T20:37:53.425Z,949.00
2022-08-25T20:40:20.776Z,948.98
2022-08-25T20:42:46.244Z,948.97
2022-08-25T20:45:12.622Z,949.03
2022-08-25T20:47:38.983Z,949.02
2022-08-25T20:50:06.957Z,949.03
2022-08-25T20:52:31.774Z,948.96
2022-08-25T20:54:58.139Z,948.96
2022-08-25T20:57:26.130Z,948.97
2022-08-25T20:59:50.930Z,948.99
2022-08-25T21:02:17.401Z,949.02
2022-08-25T21:04:48.907Z,949.01
2022-08-25T21:07:10.109Z,949.03
2022-08-25T21:09:36.538Z,949.12
2022-08-25T21:12:02.906Z,949.06
2022-08-25T21:14:29.333Z,949.03
2022-08-25T21:16:55.730Z,949.03
2022-08-25T21:19:26.367Z,949.07
2022-08-25T21:21:48.491Z,949.00
2022-08-25T21:24:14.873Z,949.06
2022-08-25T21:26:47.658Z,949.04
2022-08-25T21:29:07.633Z,949.05
2022-08-25T21:31:34.032Z,949.00
2022-08-25T21:34:00.458Z,949.08
2022-08-25T21:36:26.863Z,949.07
2022-08-25T21:38:53.329Z,949.09
2022-08-25T21:41:19.760Z,949.07
2022-08-25T21:43:46.165Z,949.07
2022-08-25T21:46:12.584Z,949.07
2022-08-25T21:48:38.922Z,949.12
2022-08-25T21:51:05.318Z,949.04
2022-08-25T21:53:31.697Z,949.08
2022-08-25T21:55:58.086Z,949.12
2022-08-25T21:58:24.486Z,949.13
2022-08-25T22:00:50.868Z,949.09
2022-08-25T22:03:17.245Z,949.07
2022-08-25T22:05:45.625Z,949.05
2022-08-25T22:08:10.024Z,949.02
2022-08-25T22:10:36.385Z,948.96
2022-08-25T22:13:02.812Z,949.02
2022-08-25T22:15:29.208Z,948.94
2022-08-25T22:17:55.585Z,948.94
2022-08-25T22:20:22.069Z,948.96
2022-08-25T22:22:48.450Z,948.87
2022-08-25T22:25:14.943Z,948.83
2022-08-25T22:27:41.309Z,948.98
2022-08-25T22:30:07.673Z,948.94
2022-08-25T22:32:34.035Z,948.96
2022-08-25T22:35:00.451Z,948.99
2022-08-25T22:37:26.814Z,948.94
2022-08-25T22:39:53.291Z,948.92
2022-08-25T22:42:19.607Z,948.86
2022-08-25T22:44:45.990Z,948.84
2022-08-25T22:47:12.348Z,948.91
2022-08-25T22:49:38.860Z,948.85
2022-08-25T22:52:05.255Z,948.81
2022-08-25T22:54:31.608Z,948.74
2022-08-25T22:56:57.997Z,948.73
2022-08-25T22:59:24.387Z,948.73
2022-08-25T23:01:50.746Z,948.77
2022-08-25T23:04:17.696Z,948.78
2022-08-25T23:06:43.630Z,948.75
2022-08-25T23:09:09.992Z,948.81
2022-08-25T23:11:38.656Z,948.80
2022-08-25T23:14:02.792Z,948.75
2022-08-25T23:16:29.257Z,948.86
2022-08-25T23:18:55.653Z,948.74
2022-08-25T23:21:24.170Z,948.78
2022-08-25T23:23:48.515Z,948.69
2022-08-25T23:26:14.945Z,948.65
2022-08-25T23:28:41.382Z,948.71
2022-08-25T23:31:07.739Z,948.71
2022-08-25T23:33:34.138Z,948.67
2022-08-25T23:36:00.503Z,948.71
2022-08-25T23:38:26.871Z,948.69
2022-08-25T23:40:53.268Z,948.69
2022-08-25T23:43:19.676Z,948.69
2022-08-25T23:45:46.082Z,948.65
2022-08-25T23:48:12.463Z,948.61
2022-08-25T23:50:38.866Z,948.59
2022-08-25T23:53:05.304Z,948.60
2022-08-25T23:55:33.637Z,948.54
2022-08-25T23:57:57.988Z,948.56
